Time;durP1;ratioP1;P1;durP2;ratioP2;P2;SDS_P1;SDS_P2;PMS_P1;PMS_P2;Temp;Humidity;BMP_temperature;BMP_pressure;BME280_temperature;BME280_humidity;BME280_pressure;Samples;Min_cycle;Max_cycle;Signal;HPM_P1;HPM_P2
2021/10/31 00:00:37;;;;;;;;;5.00;3.67;;;;;14.04;74.88;100362.25;5049525;28;45526;-81
2021/10/31 00:03:03;;;;;;;;;5.00;3.00;;;;;14.06;74.72;100366.66;5053016;28;52252;-81
2021/10/31 00:05:28;;;;;;;;;3.00;3.00;;;;;14.05;74.96;100364.00;5055688;28;51781;-81
2021/10/31 00:07:54;;;;;;;;;4.00;3.00;;;;;14.03;74.63;100369.34;5055343;28;58860;-82
2021/10/31 00:10:22;;;;;;;;;2.67;2.67;;;;;14.03;75.05;100365.81;5055272;28;51226;-81
2021/10/31 00:12:47;;;;;;;;;2.33;2.33;;;;;13.99;74.83;100359.63;5053318;28;45532;-82
2021/10/31 00:15:12;;;;;;;;;5.00;3.00;;;;;14.03;74.32;100376.44;5052223;28;59594;-81
2021/10/31 00:17:38;;;;;;;;;2.00;2.00;;;;;14.03;74.47;100374.66;5055443;28;56665;-82
2021/10/31 00:20:05;;;;;;;;;3.00;3.00;;;;;14.03;74.54;100369.34;5045696;28;45432;-81
2021/10/31 00:22:30;;;;;;;;;2.67;2.67;;;;;14.03;74.96;100372.00;5051237;28;45419;-81
2021/10/31 00:24:56;;;;;;;;;3.00;3.00;;;;;14.01;74.32;100365.84;5042038;28;51354;-81
2021/10/31 00:27:21;;;;;;;;;3.33;3.00;;;;;13.98;74.58;100360.53;5046842;28;45353;-81
2021/10/31 00:29:46;;;;;;;;;3.00;3.00;;;;;13.97;75.10;100366.75;5052349;28;50289;-81
2021/10/31 00:32:12;;;;;;;;;3.00;3.00;;;;;13.93;74.33;100356.19;5048984;28;45558;-81
2021/10/31 00:34:37;;;;;;;;;2.00;2.00;;;;;13.91;74.55;100363.28;5053746;28;57332;-81
2021/10/31 00:37:03;;;;;;;;;3.00;3.00;;;;;13.92;74.78;100367.69;5053474;28;57964;-80
2021/10/31 00:39:29;;;;;;;;;3.33;2.00;;;;;13.90;74.51;100365.03;5055410;28;45395;-81
2021/10/31 00:41:55;;;;;;;;;2.00;2.00;;;;;13.87;74.58;100370.38;5053487;28;45222;-81
2021/10/31 00:44:20;;;;;;;;;3.67;2.67;;;;;13.84;74.69;100370.41;5037525;28;46080;-81
2021/10/31 00:46:46;;;;;;;;;3.00;3.00;;;;;13.82;74.65;100374.88;5058492;28;45279;-82
2021/10/31 00:49:11;;;;;;;;;2.00;2.00;;;;;13.79;74.41;100388.16;5054102;28;45269;-81
2021/10/31 00:51:37;;;;;;;;;2.00;2.00;;;;;13.74;74.60;100374.03;5049051;28;45561;-80
2021/10/31 00:54:03;;;;;;;;;2.33;2.00;;;;;13.73;74.60;100374.94;5048443;28;60372;-81
2021/10/31 00:56:28;;;;;;;;;3.67;2.00;;;;;13.66;74.75;100362.63;5058392;28;45295;-82
2021/10/31 00:58:54;;;;;;;;;3.33;2.00;;;;;13.67;74.82;100373.22;5050075;28;45308;-80
2021/10/31 01:01:21;;;;;;;;;2.00;2.00;;;;;13.58;74.84;100352.97;5053936;28;45496;-80
2021/10/31 01:03:46;;;;;;;;;3.00;3.00;;;;;13.62;74.72;100362.66;5043937;28;47582;-81
2021/10/31 01:06:30;;;;;;;;;3.33;3.00;;;;;13.66;74.76;100359.97;5056544;28;45280;-80
2021/10/31 01:09:10;;;;;;;;;3.00;2.00;;;;;13.66;74.87;100359.97;5058494;28;45319;-81
2021/10/31 01:12:21;;;;;;;;;6.33;3.00;;;;;13.64;74.55;100352.03;5042107;28;45470;-82
2021/10/31 01:15:20;;;;;;;;;4.67;3.00;;;;;13.62;75.17;100354.69;5039694;28;46753;-81
2021/10/31 01:17:51;;;;;;;;;2.67;2.67;;;;;13.65;74.76;100351.16;5052956;28;45430;-82
2021/10/31 01:20:35;;;;;;;;;3.67;3.67;;;;;13.64;75.19;100357.34;5041347;28;45273;-80
2021/10/31 01:23:18;;;;;;;;;2.00;2.00;;;;;13.62;75.15;100354.69;5058290;28;45624;-80
2021/10/31 01:26:21;;;;;;;;;2.00;2.00;;;;;13.67;74.82;100356.44;5055571;28;46747;-80
2021/10/31 01:29:16;;;;;;;;;3.67;3.67;;;;;13.68;74.60;100350.22;5057836;28;45282;-80
2021/10/31 01:32:02;;;;;;;;;3.33;3.33;;;;;13.71;74.55;100340.47;5057111;28;45551;-81
2021/10/31 01:34:33;;;;;;;;;2.00;2.00;;;;;13.72;74.76;100338.69;5057447;28;45402;-81
2021/10/31 01:36:59;;;;;;;;;2.67;2.67;;;;;13.73;74.37;100343.09;5046450;28;46946;-80
2021/10/31 01:39:44;;;;;;;;;3.00;3.00;;;;;13.70;74.64;100340.50;5051462;28;45510;-80
2021/10/31 01:42:15;;;;;;;;;3.00;3.00;;;;;13.71;74.22;100339.59;5048864;28;45493;-80
2021/10/31 01:44:52;;;;;;;;;2.33;2.33;;;;;13.66;74.19;100321.06;5052149;28;45285;-82
2021/10/31 01:47:51;;;;;;;;;3.00;3.00;;;;;13.70;74.28;100328.09;5056374;28;47540;-80
2021/10/31 01:50:28;;;;;;;;;2.33;2.33;;;;;13.67;74.73;100309.56;5057579;28;45454;-80
2021/10/31 01:53:00;;;;;;;;;3.00;3.00;;;;;13.72;74.55;100321.00;5049575;28;45375;-80
2021/10/31 01:55:31;;;;;;;;;3.67;3.00;;;;;13.68;74.13;100310.44;5051444;28;45420;-80
2021/10/31 01:57:56;;;;;;;;;2.00;2.00;;;;;13.71;74.15;100323.69;5056022;28;46575;-82
2021/10/31 02:00:22;;;;;;;;;6.33;3.00;;;;;13.66;74.17;100312.22;5056225;28;45355;-80
2021/10/31 02:02:47;;;;;;;;;1.00;1.00;;;;;13.69;74.33;100314.84;5054777;28;45209;-82
2021/10/31 02:05:15;;;;;;;;;2.33;2.33;;;;;13.61;74.00;100304.31;5048744;28;53144;-80
2021/10/31 02:07:44;;;;;;;;;4.33;3.00;;;;;13.57;74.33;100302.56;5048763;28;47573;-80
2021/10/31 02:10:11;;;;;;;;;3.00;2.33;;;;;13.59;74.01;100311.41;5055364;28;45419;-80
2021/10/31 02:12:36;;;;;;;;;5.33;3.00;;;;;13.54;74.36;100306.16;5038029;28;45330;-81
2021/10/31 02:15:03;;;;;;;;;5.00;3.00;;;;;13.48;74.22;100300.03;5053953;28;45382;-80
2021/10/31 02:17:28;;;;;;;;;5.33;2.67;;;;;13.44;74.00;100293.00;5055905;28;47575;-80
2021/10/31 02:19:54;;;;;;;;;4.00;4.00;;;;;13.45;74.21;100298.28;5026738;28;58789;-81
2021/10/31 02:22:30;;;;;;;;;5.67;4.00;;;;;13.41;74.14;100308.91;5036719;28;48895;-80
2021/10/31 02:24:55;;;;;;;;;9.00;4.00;;;;;13.34;73.99;100298.38;5057055;28;45396;-81
2021/10/31 02:27:23;;;;;;;;;6.67;4.00;;;;;13.29;74.04;100297.53;5056223;28;46246;-82
2021/10/31 02:29:55;;;;;;;;;4.33;4.33;;;;;13.26;74.19;100299.31;5057096;28;45282;-80
2021/10/31 02:32:22;;;;;;;;;4.67;4.00;;;;;13.22;74.21;100302.91;5055163;28;45553;-80
2021/10/31 02:34:48;;;;;;;;;4.00;4.00;;;;;13.17;74.19;100299.38;5057198;28;45528;-80
2021/10/31 02:37:13;;;;;;;;;4.00;4.00;;;;;13.14;74.01;100294.97;5056401;28;46555;-80
2021/10/31 02:39:39;;;;;;;;;4.00;3.67;;;;;13.10;73.93;100288.84;5054273;28;45369;-80
2021/10/31 02:42:04;;;;;;;;;7.67;4.00;;;;;13.05;74.46;100277.38;5049597;28;45919;-80
2021/10/31 02:44:30;;;;;;;;;4.00;4.00;;;;;13.03;74.48;100284.44;5046124;28;45295;-81
2021/10/31 02:46:55;;;;;;;;;4.00;4.00;;;;;13.02;74.24;100269.44;5055266;28;46549;-80
2021/10/31 02:49:20;;;;;;;;;5.33;3.67;;;;;12.99;74.70;100276.53;5054819;28;52692;-80
2021/10/31 02:51:54;;;;;;;;;4.00;4.00;;;;;12.96;74.50;100260.69;5035993;28;52668;-82
2021/10/31 02:54:55;;;;;;;;;3.67;2.00;;;;;12.95;74.79;100267.75;5047638;28;45676;-81
2021/10/31 02:57:45;;;;;;;;;5.33;4.00;;;;;12.96;74.93;100263.31;5050632;28;46851;-79
2021/10/31 03:00:12;;;;;;;;;3.00;3.00;;;;;12.89;74.93;100245.69;5048440;28;45284;-80
2021/10/31 03:02:37;;;;;;;;;5.00;4.00;;;;;12.97;75.07;100257.13;5037479;28;45369;-80
2021/10/31 03:05:03;;;;;;;;;2.00;2.00;;;;;12.96;75.18;100261.56;5031687;28;45244;-80
2021/10/31 03:07:28;;;;;;;;;5.00;4.00;;;;;12.97;75.20;100243.88;5056482;28;45228;-81
2021/10/31 03:09:53;;;;;;;;;9.00;5.00;;;;;13.00;74.95;100241.22;5046719;28;45393;-80
2021/10/31 03:12:19;;;;;;;;;6.67;4.00;;;;;12.99;75.43;100228.84;5055387;28;45785;-80
2021/10/31 03:14:44;;;;;;;;;5.33;4.33;;;;;13.00;75.13;100227.97;5054303;28;54941;-80
2021/10/31 03:17:10;;;;;;;;;4.67;4.00;;;;;13.01;75.16;100235.03;5056623;28;45623;-81
2021/10/31 03:19:36;;;;;;;;;5.00;4.00;;;;;12.99;75.46;100218.22;5054007;28;45320;-80
2021/10/31 03:22:02;;;;;;;;;4.67;4.00;;;;;13.02;75.40;100220.88;5051822;28;45419;-79
2021/10/31 03:24:28;;;;;;;;;8.33;4.67;;;;;13.07;75.24;100227.88;5051034;28;45482;-80
2021/10/31 03:26:53;;;;;;;;;11.00;6.00;;;;;13.06;75.29;100223.47;5051983;28;46521;-80
2021/10/31 03:29:21;;;;;;;;;4.33;4.33;;;;;13.07;75.21;100219.94;5055688;28;59294;-79
2021/10/31 03:31:47;;;;;;;;;7.00;5.00;;;;;13.07;75.44;100217.28;5056319;28;45414;-80
2021/10/31 03:34:12;;;;;;;;;6.67;5.00;;;;;13.08;75.17;100218.16;5055387;28;53918;-79
2021/10/31 03:36:38;;;;;;;;;4.67;4.33;;;;;13.08;75.02;100212.84;5052892;28;56572;-80
2021/10/31 03:39:03;;;;;;;;;9.33;6.33;;;;;13.07;75.59;100208.47;5055411;28;51152;-80
2021/10/31 03:41:28;;;;;;;;;6.00;6.00;;;;;13.07;75.15;100203.16;5053831;28;46096;-81
2021/10/31 03:43:54;;;;;;;;;6.00;6.00;;;;;13.07;75.53;100208.47;5041576;28;45313;-79
2021/10/31 03:46:19;;;;;;;;;6.00;6.00;;;;;13.07;75.36;100190.78;5053383;28;46908;-80
2021/10/31 03:48:45;;;;;;;;;11.33;6.67;;;;;13.09;75.39;100201.34;5055639;28;54129;-80
2021/10/31 03:51:10;;;;;;;;;6.67;6.00;;;;;13.11;75.45;100195.16;5054385;28;45640;-80
2021/10/31 03:53:35;;;;;;;;;5.00;5.00;;;;;13.13;75.68;100197.78;5056177;28;45378;-82
2021/10/31 03:56:01;;;;;;;;;10.67;9.33;;;;;13.15;75.87;100200.41;5056304;28;54369;-79
2021/10/31 03:58:26;;;;;;;;;10.00;6.00;;;;;13.15;75.58;100184.50;5045740;28;45568;-80
2021/10/31 04:00:52;;;;;;;;;13.67;10.00;;;;;13.15;75.63;100192.47;5054282;28;49419;-80
2021/10/31 04:03:17;;;;;;;;;12.00;10.67;;;;;13.18;75.33;100192.44;5062026;28;51310;-80
2021/10/31 04:05:43;;;;;;;;;10.00;10.00;;;;;13.19;75.69;100188.91;5054098;28;46141;-80
2021/10/31 04:08:08;;;;;;;;;13.33;10.33;;;;;13.20;75.37;100190.66;5053921;28;57722;-80
2021/10/31 04:10:34;;;;;;;;;12.00;12.00;;;;;13.20;75.77;100186.22;5055479;28;45208;-80
2021/10/31 04:12:59;;;;;;;;;12.00;11.00;;;;;13.18;75.15;100177.41;5062678;28;46085;-79
2021/10/31 04:15:25;;;;;;;;;12.33;12.33;;;;;13.16;75.63;100173.03;5055162;28;56179;-79
2021/10/31 04:17:50;;;;;;;;;15.00;12.33;;;;;13.16;75.41;100165.97;5047217;28;46592;-81
2021/10/31 04:20:16;;;;;;;;;13.33;13.00;;;;;13.15;75.43;100164.19;5056409;28;45457;-79
2021/10/31 04:22:42;;;;;;;;;15.67;12.67;;;;;13.11;75.62;100154.53;5057571;28;45418;-81
2021/10/31 04:25:08;;;;;;;;;12.00;12.00;;;;;13.17;75.86;100156.25;5058923;28;47324;-79
2021/10/31 04:27:33;;;;;;;;;16.33;12.00;;;;;13.17;75.39;100162.41;5059090;28;45586;-78
2021/10/31 04:29:59;;;;;;;;;17.67;13.00;;;;;13.16;75.46;100163.31;5057332;28;46176;-80
2021/10/31 04:32:24;;;;;;;;;15.33;13.67;;;;;13.18;75.73;100148.25;5058461;28;51486;-79
2021/10/31 04:34:50;;;;;;;;;13.00;13.00;;;;;13.23;75.66;100158.84;5057745;28;46327;-80
2021/10/31 04:37:15;;;;;;;;;14.00;14.00;;;;;13.27;75.93;100160.59;5057298;28;45647;-79
2021/10/31 04:39:41;;;;;;;;;13.00;12.00;;;;;13.27;76.12;100149.97;5053104;28;45266;-81
2021/10/31 04:42:08;;;;;;;;;15.00;12.33;;;;;13.36;75.83;100160.47;5049949;28;45352;-80
2021/10/31 04:44:33;;;;;;;;;12.00;11.00;;;;;13.38;75.74;100152.50;5046230;28;46562;-80
2021/10/31 04:46:59;;;;;;;;;13.00;13.00;;;;;13.43;75.41;100162.16;5058658;28;45356;-79
2021/10/31 04:49:25;;;;;;;;;11.00;11.00;;;;;13.46;75.68;100151.50;5058467;28;45543;-79
2021/10/31 04:51:50;;;;;;;;;13.00;12.00;;;;;13.49;75.22;100151.47;5056637;28;45549;-80
2021/10/31 04:54:15;;;;;;;;;13.00;11.33;;;;;13.49;75.39;100145.31;5057819;28;46875;-79
2021/10/31 04:56:41;;;;;;;;;11.67;11.67;;;;;13.51;75.34;100139.06;5050603;28;45375;-81
2021/10/31 04:59:06;;;;;;;;;12.33;11.00;;;;;13.53;75.58;100136.38;5058120;28;52554;-79
2021/10/31 05:01:32;;;;;;;;;16.33;12.00;;;;;13.55;75.46;100124.00;5057822;28;51746;-79
2021/10/31 05:03:57;;;;;;;;;11.67;11.67;;;;;13.51;75.74;100109.03;5050908;28;62091;-79
2021/10/31 05:06:22;;;;;;;;;10.67;9.33;;;;;13.53;75.46;100108.13;5055354;28;54196;-79
2021/10/31 05:08:48;;;;;;;;;12.00;11.00;;;;;13.59;75.85;100110.69;5070272;28;50159;-80
2021/10/31 05:11:13;;;;;;;;;9.67;9.67;;;;;13.61;75.33;100105.34;5053373;28;51934;-79
2021/10/31 05:13:39;;;;;;;;;11.00;8.00;;;;;13.63;75.60;100101.81;5047871;28;53852;-79
2021/10/31 05:16:05;;;;;;;;;7.67;7.00;;;;;13.63;75.66;100096.50;5057162;28;45241;-79
2021/10/31 05:18:31;;;;;;;;;7.33;7.33;;;;;13.65;75.15;100088.50;5058467;28;45363;-82
2021/10/31 05:20:56;;;;;;;;;7.00;6.33;;;;;13.68;75.44;100087.56;5056917;28;45240;-79
2021/10/31 05:23:22;;;;;;;;;9.00;7.67;;;;;13.68;75.50;100082.28;5057732;28;46644;-80
2021/10/31 05:25:47;;;;;;;;;10.67;7.00;;;;;13.71;75.92;100077.81;5056004;28;56424;-81
2021/10/31 05:28:13;;;;;;;;;8.67;7.00;;;;;13.74;75.40;100085.75;5057427;28;53628;-80
2021/10/31 05:30:38;;;;;;;;;10.33;7.00;;;;;13.76;75.72;100085.72;5057787;28;51686;-82
2021/10/31 05:33:05;;;;;;;;;15.00;8.33;;;;;13.77;75.40;100064.44;5049089;28;58528;-79
2021/10/31 05:35:30;;;;;;;;;8.00;8.00;;;;;13.79;75.34;100057.34;5056679;28;45260;-79
2021/10/31 05:37:57;;;;;;;;;12.33;9.33;;;;;13.81;75.59;100060.00;5057303;28;50349;-79
2021/10/31 05:40:23;;;;;;;;;8.67;8.67;;;;;13.82;75.01;100054.66;5056350;28;45452;-79
2021/10/31 05:42:48;;;;;;;;;8.00;8.00;;;;;13.83;75.69;100053.75;5052321;28;47506;-79
2021/10/31 05:45:14;;;;;;;;;11.00;8.00;;;;;13.86;75.02;100052.84;5045362;28;48013;-79
2021/10/31 05:47:41;;;;;;;;;11.33;8.00;;;;;13.86;75.10;100058.16;5057432;28;51746;-79
2021/10/31 05:50:07;;;;;;;;;7.33;7.33;;;;;13.90;75.55;100057.19;5055022;28;45351;-79
2021/10/31 05:52:33;;;;;;;;;13.67;8.67;;;;;13.88;75.21;100059.00;5048427;28;47951;-79
2021/10/31 05:54:59;;;;;;;;;8.33;8.33;;;;;13.92;75.20;100052.75;5039693;28;45296;-79
2021/10/31 05:57:25;;;;;;;;;7.00;7.00;;;;;13.92;75.47;100052.75;5038669;28;45273;-79
2021/10/31 05:59:51;;;;;;;;;12.33;9.00;;;;;13.93;75.05;100049.19;5051441;28;45526;-79
2021/10/31 06:02:16;;;;;;;;;9.33;7.00;;;;;13.94;75.44;100034.13;5055798;28;47456;-79
2021/10/31 06:04:44;;;;;;;;;8.33;8.33;;;;;13.93;75.24;100033.25;5050382;28;55758;-79
2021/10/31 06:07:10;;;;;;;;;6.33;6.00;;;;;13.91;75.20;100021.81;5057014;28;45227;-79
2021/10/31 06:09:35;;;;;;;;;6.00;6.00;;;;;13.93;75.27;100016.47;5057803;28;45293;-79
2021/10/31 06:12:03;;;;;;;;;8.00;7.00;;;;;13.90;75.10;100012.06;5057205;28;47122;-82
2021/10/31 06:14:28;;;;;;;;;9.00;7.00;;;;;13.93;75.27;100017.34;5049027;28;45398;-81
2021/10/31 06:16:54;;;;;;;;;11.33;7.33;;;;;13.96;75.39;100016.44;5056314;28;45335;-82
2021/10/31 06:19:19;;;;;;;;;10.33;7.00;;;;;13.96;75.59;100025.25;5056526;28;45375;-79
2021/10/31 06:21:45;;;;;;;;;7.67;7.00;;;;;13.97;75.29;100016.38;5041850;28;46774;-79
2021/10/31 06:24:10;;;;;;;;;7.33;7.00;;;;;13.94;75.37;100012.91;5055272;28;56202;-79
2021/10/31 06:26:35;;;;;;;;;6.33;6.33;;;;;13.97;75.67;100020.81;5056322;28;54019;-80
2021/10/31 06:29:01;;;;;;;;;9.00;6.33;;;;;13.98;75.44;100018.13;5057274;28;45252;-80
2021/10/31 06:31:26;;;;;;;;;9.33;8.00;;;;;13.98;75.61;100015.47;5049946;28;46335;-80
2021/10/31 06:33:51;;;;;;;;;8.33;7.33;;;;;13.92;75.81;99989.06;5056244;28;53437;-81
2021/10/31 06:36:17;;;;;;;;;12.00;6.00;;;;;14.01;75.31;99995.97;5056878;28;45212;-80
2021/10/31 06:38:42;;;;;;;;;6.00;6.00;;;;;14.00;75.89;99981.81;5056096;28;45261;-82
2021/10/31 06:41:09;;;;;;;;;8.00;6.33;;;;;14.00;75.92;99973.84;5056464;28;53612;-79
2021/10/31 06:43:35;;;;;;;;;5.00;5.00;;;;;13.99;75.95;99955.31;5048468;28;45311;-80
2021/10/31 06:46:00;;;;;;;;;13.00;6.00;;;;;13.98;75.64;99956.22;5044322;28;45617;-77
2021/10/31 06:48:26;;;;;;;;;5.33;5.00;;;;;13.99;75.53;99956.19;5045904;28;45779;-78
2021/10/31 06:50:53;;;;;;;;;5.00;5.00;;;;;13.96;75.59;99956.25;5040983;28;46841;-78
2021/10/31 06:53:19;;;;;;;;;7.00;7.00;;;;;13.95;76.21;99948.28;5041503;28;45452;-77
2021/10/31 06:55:45;;;;;;;;;6.67;6.67;;;;;13.97;76.46;99952.69;5055275;28;45547;-77
2021/10/31 06:58:10;;;;;;;;;6.00;6.00;;;;;13.97;76.17;99952.69;5028773;28;45617;-77
2021/10/31 07:00:35;;;;;;;;;8.00;7.00;;;;;13.93;76.22;99935.06;5029362;28;49870;-78
2021/10/31 07:03:01;;;;;;;;;7.33;6.00;;;;;13.96;76.09;99929.72;5034211;28;55787;-77
2021/10/31 07:05:26;;;;;;;;;7.00;7.00;;;;;13.94;75.95;99925.31;5035059;28;50262;-77
2021/10/31 07:07:52;;;;;;;;;5.67;5.67;;;;;13.87;76.16;99913.94;5034750;28;49612;-78
2021/10/31 07:10:17;;;;;;;;;9.33;7.00;;;;;13.93;76.27;99912.97;5034564;28;56230;-76
2021/10/31 07:12:43;;;;;;;;;7.67;7.00;;;;;13.91;76.12;99931.56;5017821;28;45328;-77
2021/10/31 07:15:08;;;;;;;;;9.00;6.00;;;;;13.95;75.88;99940.34;5018026;28;45400;-77
2021/10/31 07:17:34;;;;;;;;;12.00;7.00;;;;;13.96;76.35;99934.16;5036217;28;45332;-77
2021/10/31 07:19:59;;;;;;;;;10.33;7.00;;;;;13.94;75.75;99926.19;5035480;28;46828;-78
2021/10/31 07:22:25;;;;;;;;;11.33;11.00;;;;;13.99;76.33;99923.47;5033825;28;45245;-79
2021/10/31 07:24:51;;;;;;;;;6.67;5.67;;;;;13.99;76.38;99928.78;5035528;28;47917;-77
2021/10/31 07:27:17;;;;;;;;;7.00;7.00;;;;;13.98;76.21;99933.22;5035178;28;46263;-77
2021/10/31 07:29:43;;;;;;;;;9.00;7.00;;;;;14.00;76.39;99934.03;5017789;28;45744;-77
2021/10/31 07:32:08;;;;;;;;;9.00;9.00;;;;;14.01;76.28;99921.66;5030132;28;45546;-78
2021/10/31 07:34:34;;;;;;;;;9.33;8.00;;;;;14.04;76.12;99911.88;5033193;28;45413;-80
2021/10/31 07:36:59;;;;;;;;;10.33;8.33;;;;;14.08;76.03;99904.72;5033238;28;45801;-79
2021/10/31 07:39:25;;;;;;;;;15.67;8.00;;;;;14.12;76.11;99909.09;5034566;28;47707;-80
2021/10/31 07:41:50;;;;;;;;;7.67;7.00;;;;;14.15;76.09;99903.69;5034519;28;45471;-80
2021/10/31 07:44:17;;;;;;;;;12.00;8.00;;;;;14.15;76.29;99901.03;5036109;28;45314;-77
2021/10/31 07:46:42;;;;;;;;;8.33;7.00;;;;;14.21;75.92;99900.06;5018489;28;45243;-76
2021/10/31 07:49:09;;;;;;;;;7.00;4.67;;;;;14.24;76.50;99894.69;5036005;28;45726;-77
2021/10/31 07:51:35;;;;;;;;;8.67;5.67;;;;;14.27;76.52;99898.16;5038669;28;45371;-76
2021/10/31 07:54:00;;;;;;;;;5.67;5.67;;;;;14.29;76.44;99890.19;5038793;28;54542;-77
2021/10/31 07:56:27;;;;;;;;;4.67;4.67;;;;;14.28;76.26;99881.34;5039792;28;45389;-76
2021/10/31 07:58:55;;;;;;;;;6.33;6.33;;;;;14.30;76.37;99868.91;5055975;28;46813;-74
2021/10/31 08:01:24;;;;;;;;;6.67;6.67;;;;;14.36;75.95;99868.78;5057806;28;45433;-75
2021/10/31 08:03:55;;;;;;;;;8.67;7.00;;;;;14.39;76.25;99865.19;5057028;28;45432;-76
2021/10/31 08:06:21;;;;;;;;;7.67;7.67;;;;;14.43;76.14;99858.88;5031252;28;45540;-77
2021/10/31 08:08:47;;;;;;;;;8.00;6.00;;;;;14.46;75.80;99850.88;5038036;28;46259;-77
2021/10/31 08:11:12;;;;;;;;;6.00;5.00;;;;;14.52;75.64;99844.59;5052382;28;45495;-77
2021/10/31 08:13:39;;;;;;;;;13.00;6.00;;;;;14.56;76.05;99847.16;5048479;28;48078;-76
2021/10/31 08:16:04;;;;;;;;;12.33;6.00;;;;;14.57;76.02;99845.38;5047574;28;45483;-77
2021/10/31 08:18:30;;;;;;;;;6.00;6.00;;;;;14.65;75.50;99854.06;5058289;28;47477;-77
2021/10/31 08:20:55;;;;;;;;;5.67;5.67;;;;;14.69;75.47;99847.75;5031751;28;45838;-77
2021/10/31 08:23:21;;;;;;;;;7.00;6.67;;;;;14.70;75.19;99836.25;5047997;28;58361;-76
2021/10/31 08:25:49;;;;;;;;;10.00;7.33;;;;;14.74;75.38;99847.66;5050531;28;45520;-77
2021/10/31 08:28:16;;;;;;;;;5.33;5.00;;;;;14.77;74.88;99840.50;5049972;28;45299;-77
2021/10/31 08:30:44;;;;;;;;;6.00;6.00;;;;;14.83;74.84;99843.03;5049072;28;46213;-77
2021/10/31 08:33:20;;;;;;;;;5.33;5.33;;;;;14.84;74.93;99836.78;5056878;28;45516;-78
2021/10/31 08:35:49;;;;;;;;;6.33;5.00;;;;;14.82;74.98;99822.69;5025411;28;45572;-77
2021/10/31 08:38:14;;;;;;;;;4.00;4.00;;;;;14.85;74.45;99821.72;5023795;28;47928;-78
2021/10/31 08:40:41;;;;;;;;;5.33;5.00;;;;;14.92;74.94;99820.69;5057339;28;45374;-77
2021/10/31 08:43:09;;;;;;;;;6.67;4.00;;;;;14.98;74.70;99817.03;5057062;28;45470;-77
2021/10/31 08:45:35;;;;;;;;;6.33;3.00;;;;;15.01;74.39;99801.84;5027417;28;45511;-79
2021/10/31 08:48:01;;;;;;;;;8.67;5.00;;;;;15.02;74.76;99802.72;5043332;28;47319;-79
2021/10/31 08:50:30;;;;;;;;;5.00;5.00;;;;;15.06;74.11;99801.75;5042797;28;45711;-78
2021/10/31 08:52:56;;;;;;;;;5.00;5.00;;;;;15.10;74.26;99800.78;5046659;28;45193;-77
2021/10/31 08:55:21;;;;;;;;;7.67;5.00;;;;;15.14;73.94;99789.16;5052538;28;45616;-78
2021/10/31 08:57:47;;;;;;;;;5.00;5.00;;;;;15.16;74.03;99789.97;5046814;28;46383;-78
2021/10/31 09:00:13;;;;;;;;;5.00;5.00;;;;;15.20;74.29;99768.59;5049718;28;52480;-78
2021/10/31 09:02:38;;;;;;;;;5.00;5.00;;;;;15.23;73.94;99753.47;5052158;28;45309;-78
2021/10/31 09:05:07;;;;;;;;;8.00;6.00;;;;;15.24;73.72;99745.47;5054792;28;45530;-77
2021/10/31 09:07:32;;;;;;;;;6.00;4.33;;;;;15.33;73.42;99754.97;5058292;28;47672;-77
2021/10/31 09:09:58;;;;;;;;;5.33;5.00;;;;;15.35;73.95;99756.69;5056580;28;45495;-77
2021/10/31 09:12:24;;;;;;;;;3.33;3.33;;;;;15.36;73.54;99750.47;5057857;28;45436;-79
2021/10/31 09:14:51;;;;;;;;;5.00;5.00;;;;;15.44;73.44;99750.25;5038016;28;45397;-78
2021/10/31 09:17:16;;;;;;;;;2.67;2.67;;;;;15.51;73.59;99743.00;5055163;28;47544;-77
2021/10/31 09:19:41;;;;;;;;;6.00;4.00;;;;;15.56;72.99;99730.47;5051964;28;46813;-79
2021/10/31 09:22:07;;;;;;;;;4.00;4.00;;;;;15.60;73.20;99729.44;5056652;28;45455;-77
2021/10/31 09:24:32;;;;;;;;;3.00;3.00;;;;;15.63;73.12;99722.28;5056046;28;45454;-78
2021/10/31 09:26:58;;;;;;;;;3.00;3.00;;;;;15.72;72.53;99723.81;5057446;28;45830;-77
2021/10/31 09:29:29;;;;;;;;;5.00;4.00;;;;;15.77;73.08;99723.72;5056639;28;45543;-77
2021/10/31 09:31:54;;;;;;;;;4.00;4.00;;;;;15.84;73.00;99733.25;5049755;28;45500;-78
2021/10/31 09:34:20;;;;;;;;;3.67;3.67;;;;;15.90;72.53;99725.97;5058009;28;45433;-77
2021/10/31 09:36:46;;;;;;;;;5.33;4.00;;;;;15.95;72.41;99712.53;5056294;28;46275;-78
2021/10/31 09:39:12;;;;;;;;;4.33;3.00;;;;;16.03;72.63;99721.13;5057344;28;46012;-77
2021/10/31 09:41:38;;;;;;;;;5.00;5.00;;;;;16.11;72.32;99715.59;5054233;28;45491;-78
2021/10/31 09:44:23;;;;;;;;;3.67;3.67;;;;;16.15;72.49;99691.50;5040633;28;45910;-79
2021/10/31 09:46:48;;;;;;;;;4.00;4.00;;;;;16.27;72.29;99686.72;5056659;28;47449;-79
2021/10/31 09:49:14;;;;;;;;;5.33;3.00;;;;;16.30;71.81;99676.88;5043009;28;45324;-78
2021/10/31 09:51:40;;;;;;;;;5.00;3.67;;;;;16.36;71.12;99668.69;5041543;28;45430;-79
2021/10/31 09:54:06;;;;;;;;;4.00;4.00;;;;;16.41;71.62;99677.41;5054309;28;45528;-78
2021/10/31 09:56:34;;;;;;;;;2.00;2.00;;;;;16.44;71.43;99663.09;5053200;28;47438;-77
2021/10/31 09:59:00;;;;;;;;;4.00;3.00;;;;;16.52;71.09;99653.06;5055843;28;45435;-78
2021/10/31 10:01:58;;;;;;;;;2.67;2.67;;;;;16.58;70.88;99644.88;5056992;28;45510;-78
2021/10/31 10:04:34;;;;;;;;;2.00;2.00;;;;;16.61;70.99;99642.09;5051094;28;45338;-77
2021/10/31 10:07:02;;;;;;;;;3.00;3.00;;;;;16.70;71.07;99641.81;5057087;28;47462;-79
2021/10/31 10:09:30;;;;;;;;;2.00;2.00;;;;;16.78;70.73;99638.94;5057010;28;45534;-77
2021/10/31 10:11:57;;;;;;;;;2.67;2.67;;;;;16.87;70.72;99640.41;5052360;28;45717;-77
2021/10/31 10:14:29;;;;;;;;;4.00;3.33;;;;;16.94;70.17;99623.28;5044356;28;45467;-77
2021/10/31 10:17:05;;;;;;;;;2.67;2.67;;;;;16.97;70.51;99616.03;5055128;28;47485;-78
2021/10/31 10:19:35;;;;;;;;;5.00;3.00;;;;;17.05;70.03;99618.44;5055802;28;45315;-78
2021/10/31 10:22:06;;;;;;;;;3.00;3.00;;;;;17.10;70.16;99611.16;5050334;28;45576;-78
2021/10/31 10:24:33;;;;;;;;;3.67;3.00;;;;;17.14;69.67;99595.91;5056421;28;45508;-78
2021/10/31 10:27:03;;;;;;;;;5.00;2.00;;;;;17.17;70.02;99599.34;5036194;28;47608;-78
2021/10/31 10:29:39;;;;;;;;;2.33;2.33;;;;;17.23;69.25;99575.09;5055684;28;45364;-78
2021/10/31 10:32:08;;;;;;;;;3.67;3.67;;;;;17.32;69.58;99591.72;5057129;28;45473;-79
2021/10/31 10:45:15;;;;;;;;;3.00;3.00;;;;;17.47;69.11;99569.78;5146919;27;45294;-78
2021/10/31 10:47:42;;;;;;;;;1.33;1.33;;;;;17.55;69.43;99562.38;5132881;27;45423;-78
2021/10/31 10:50:19;;;;;;;;;3.00;3.00;;;;;17.60;68.99;99575.53;5132412;27;46942;-78
2021/10/31 10:52:44;;;;;;;;;5.00;2.67;;;;;17.62;69.49;99560.31;5134207;27;45342;-78
2021/10/31 10:55:17;;;;;;;;;3.00;3.00;;;;;17.66;69.50;99561.97;5115001;27;45749;-76
2021/10/31 10:57:48;;;;;;;;;4.33;3.33;;;;;17.67;69.01;99559.22;5133723;27;45422;-77
2021/10/31 11:00:15;;;;;;;;;5.00;3.00;;;;;17.74;69.56;99560.78;5133542;27;45434;-79
2021/10/31 11:02:40;;;;;;;;;1.33;1.33;;;;;17.80;69.62;99560.53;5132866;27;45303;-78
2021/10/31 11:05:08;;;;;;;;;2.00;2.00;;;;;17.87;69.38;99561.16;5129103;27;47465;-77
2021/10/31 11:07:37;;;;;;;;;1.67;1.67;;;;;17.94;69.57;99562.66;5125839;27;45287;-77
2021/10/31 11:10:07;;;;;;;;;3.33;2.00;;;;;18.01;69.51;99565.97;5134108;27;45582;-78
2021/10/31 11:15:12;;;;;;;;;2.00;2.00;;;;;18.13;69.25;99548.56;5030150;22;46186;-79
2021/10/31 11:17:38;;;;;;;;;2.00;2.00;;;;;18.09;69.17;99536.25;5040556;28;45433;-78
2021/10/31 11:20:06;;;;;;;;;2.00;0.67;;;;;18.04;69.60;99563.16;5041371;28;45501;-78
2021/10/31 11:22:32;;;;;;;;;2.00;1.00;;;;;18.06;69.09;99553.31;5042986;28;45394;-77
2021/10/31 11:24:58;;;;;;;;;1.00;1.00;;;;;18.02;69.09;99525.84;5028287;28;46199;-78
2021/10/31 11:27:25;;;;;;;;;1.00;1.00;;;;;18.04;69.48;99521.28;5033209;28;45470;-78
2021/10/31 11:29:52;;;;;;;;;2.00;2.00;;;;;17.97;69.73;99514.47;5057771;28;45613;-78
2021/10/31 11:32:17;;;;;;;;;1.00;1.00;;;;;17.99;69.90;99517.06;5059352;28;45437;-77
2021/10/31 11:34:45;;;;;;;;;1.00;1.00;;;;;17.96;70.23;99509.19;5052821;28;46370;-79
2021/10/31 11:37:11;;;;;;;;;0.33;0.33;;;;;17.93;69.89;99511.97;5051287;28;45511;-78
2021/10/31 11:39:37;;;;;;;;;3.67;1.00;;;;;17.84;70.23;99502.50;5036095;28;46126;-78
2021/10/31 11:42:02;;;;;;;;;2.00;2.00;;;;;17.86;70.67;99506.00;5021396;28;45614;-77